virtualACA

Welcome To Calgary International Airport CYYC

Hub Roster

Pilot Domicile Rank
Ethan Title - ACA1641CanadaChief Pilot
Graham Dawson - ACA2317CanadaChief Pilot
Rashaido Brown - ACA3288JamaicaFirst Officer

Current Vatsim Weather


CYYC 302000Z 11007KT 1 1/4SM R17L/5000FT/D BR OVC004 M05/M06 A2975 RMK ST8 CIG VRB 3-5 SLP135
Calgary International Airport